createdAt,value
2023-08-17T00:02:49.115Z,25.28
2023-08-17T00:05:52.344Z,25.28
2023-08-17T00:08:54.443Z,25.24
2023-08-17T00:11:56.430Z,25.20
2023-08-17T00:14:58.572Z,25.15
2023-08-17T00:18:00.640Z,25.18
2023-08-17T00:21:02.728Z,25.18
2023-08-17T00:24:05.623Z,25.19
2023-08-17T00:27:07.750Z,25.14
2023-08-17T00:30:10.225Z,25.15
2023-08-17T00:33:12.930Z,25.06
2023-08-17T00:36:16.731Z,25.04
2023-08-17T00:39:19.947Z,25.12
2023-08-17T00:42:22.471Z,25.14
2023-08-17T00:45:25.232Z,25.20
2023-08-17T00:48:30.129Z,25.21
2023-08-17T00:51:33.081Z,25.18
2023-08-17T00:54:35.945Z,25.14
2023-08-17T00:57:38.240Z,25.14
2023-08-17T01:00:41.520Z,25.09
2023-08-17T01:03:44.098Z,25.12
2023-08-17T01:06:46.342Z,25.09
2023-08-17T01:09:48.474Z,25.07
2023-08-17T01:13:11.000Z,25.08
2023-08-17T01:16:22.486Z,25.06
2023-08-17T01:19:28.728Z,25.03
2023-08-17T01:22:31.717Z,24.98
2023-08-17T01:25:40.345Z,25.13
2023-08-17T01:28:48.321Z,25.29
2023-08-17T01:32:11.554Z,25.39
2023-08-17T01:35:38.793Z,25.46
2023-08-17T01:38:42.135Z,25.51
2023-08-17T01:41:47.999Z,25.54
2023-08-17T01:44:50.428Z,25.59
2023-08-17T01:47:52.746Z,25.63
2023-08-17T01:50:54.869Z,25.65
2023-08-17T01:53:56.995Z,25.66
2023-08-17T01:56:59.001Z,25.67
2023-08-17T02:00:01.570Z,25.43
2023-08-17T02:03:03.924Z,25.24
2023-08-17T02:06:06.040Z,25.13
2023-08-17T02:09:08.384Z,25.02
2023-08-17T02:12:12.161Z,24.95
2023-08-17T02:15:14.390Z,24.90
2023-08-17T02:18:16.538Z,24.89
2023-08-17T02:21:18.640Z,24.85
2023-08-17T02:24:20.691Z,25.07
2023-08-17T02:27:22.727Z,25.25
2023-08-17T02:30:24.810Z,25.01
2023-08-17T02:33:26.939Z,24.98
2023-08-17T02:36:29.118Z,24.85
2023-08-17T02:39:31.307Z,24.83
2023-08-17T02:42:33.377Z,24.84
2023-08-17T02:45:35.830Z,24.80
2023-08-17T02:48:37.904Z,24.79
2023-08-17T02:51:39.994Z,24.76
2023-08-17T02:54:42.045Z,24.72
2023-08-17T02:57:45.895Z,24.69
2023-08-17T03:00:48.064Z,24.64
2023-08-17T03:03:50.062Z,24.64
2023-08-17T03:06:52.216Z,24.65
2023-08-17T03:09:54.301Z,24.67
2023-08-17T03:12:56.454Z,24.60
2023-08-17T03:15:58.465Z,24.64
2023-08-17T03:19:01.088Z,24.61
2023-08-17T03:22:03.456Z,24.61
2023-08-17T03:25:06.980Z,24.59
2023-08-17T03:28:09.322Z,24.61
2023-08-17T03:31:12.270Z,24.57
2023-08-17T03:34:14.407Z,24.63
2023-08-17T03:37:16.752Z,24.59
2023-08-17T03:40:18.936Z,24.55
2023-08-17T03:43:21.131Z,24.57
2023-08-17T03:46:24.097Z,24.57
2023-08-17T03:49:26.523Z,24.60
2023-08-17T03:52:28.581Z,24.64
2023-08-17T03:55:30.754Z,24.66
2023-08-17T03:58:36.072Z,24.64
2023-08-17T04:01:38.326Z,24.61
2023-08-17T04:04:40.652Z,24.71
2023-08-17T04:07:42.912Z,24.72
2023-08-17T04:10:45.085Z,24.77
2023-08-17T04:13:47.773Z,24.78
2023-08-17T04:16:50.024Z,24.80
2023-08-17T04:19:52.756Z,24.83
2023-08-17T04:22:54.969Z,24.84
2023-08-17T04:25:57.027Z,24.87
2023-08-17T04:28:59.123Z,24.84
2023-08-17T04:32:01.271Z,24.85
2023-08-17T04:35:03.644Z,24.89
2023-08-17T04:38:05.837Z,25.02
2023-08-17T04:41:08.038Z,25.17
2023-08-17T04:44:10.279Z,25.26
2023-08-17T04:47:12.761Z,25.29
2023-08-17T04:50:17.491Z,25.32
2023-08-17T04:53:20.031Z,25.31
2023-08-17T04:56:22.201Z,25.31
2023-08-17T04:59:24.312Z,25.33
2023-08-17T05:02:26.744Z,25.30
2023-08-17T05:05:29.192Z,25.40
2023-08-17T05:08:32.210Z,25.41
2023-08-17T05:11:35.389Z,25.41
2023-08-17T05:14:37.589Z,25.42
2023-08-17T05:17:40.286Z,25.41
2023-08-17T05:20:44.277Z,25.43
2023-08-17T05:23:46.580Z,25.46
2023-08-17T05:26:49.351Z,25.49
2023-08-17T05:29:52.161Z,25.47
2023-08-17T05:32:54.319Z,25.52
2023-08-17T05:35:57.031Z,25.53
2023-08-17T05:38:59.173Z,25.58
2023-08-17T05:42:03.124Z,25.49
2023-08-17T05:45:05.714Z,25.52
2023-08-17T05:48:08.281Z,25.62
2023-08-17T05:51:10.433Z,25.84
2023-08-17T05:54:12.523Z,26.07
2023-08-17T05:57:14.778Z,26.22
2023-08-17T06:00:17.031Z,26.16
2023-08-17T06:03:19.535Z,26.13
2023-08-17T06:06:22.153Z,26.14
2023-08-17T06:09:24.483Z,26.13
2023-08-17T06:12:28.070Z,26.14
2023-08-17T06:15:30.368Z,26.16
2023-08-17T06:18:32.498Z,26.10
2023-08-17T06:21:34.802Z,26.06
2023-08-17T06:24:38.494Z,26.15
2023-08-17T06:27:43.301Z,26.17
2023-08-17T06:30:45.465Z,26.18
2023-08-17T06:33:47.789Z,26.23
2023-08-17T06:37:08.110Z,26.28
2023-08-17T06:40:11.294Z,26.34
2023-08-17T06:43:14.709Z,26.39
2023-08-17T06:46:18.015Z,26.38
2023-08-17T06:49:20.446Z,26.36
2023-08-17T06:52:22.639Z,26.36
2023-08-17T06:55:24.867Z,26.43
2023-08-17T06:58:27.240Z,26.47
2023-08-17T07:01:29.260Z,26.50
2023-08-17T07:04:31.401Z,26.56
2023-08-17T07:07:33.598Z,26.57
2023-08-17T07:10:36.031Z,26.63
2023-08-17T07:13:38.118Z,26.69
2023-08-17T07:16:40.446Z,26.71
2023-08-17T07:20:00.007Z,26.75
2023-08-17T07:23:05.147Z,26.77
2023-08-17T07:26:07.213Z,26.79
2023-08-17T07:29:09.853Z,26.82
2023-08-17T07:32:11.975Z,26.85
2023-08-17T07:35:14.222Z,26.90
2023-08-17T07:38:17.637Z,26.94
2023-08-17T07:41:19.627Z,27.00
2023-08-17T07:44:21.754Z,27.01
2023-08-17T07:47:23.821Z,27.09
2023-08-17T07:50:26.057Z,27.09
2023-08-17T07:53:28.152Z,27.14
2023-08-17T07:56:30.277Z,27.16
2023-08-17T07:59:32.318Z,27.20
2023-08-17T08:02:34.458Z,27.22
2023-08-17T08:05:37.753Z,27.23
2023-08-17T08:08:41.721Z,27.20
2023-08-17T08:11:43.945Z,27.14
2023-08-17T08:14:46.186Z,27.14
2023-08-17T08:17:48.449Z,27.10
2023-08-17T08:20:50.688Z,27.18
2023-08-17T08:23:52.863Z,27.19
2023-08-17T08:26:56.080Z,27.20
2023-08-17T08:30:00.938Z,27.17
2023-08-17T08:33:03.497Z,27.18
2023-08-17T08:36:07.343Z,27.23
2023-08-17T08:39:09.348Z,27.24
2023-08-17T08:42:11.431Z,27.28
2023-08-17T08:45:13.528Z,27.28
2023-08-17T08:48:19.424Z,27.27
2023-08-17T08:51:29.986Z,27.30
2023-08-17T08:54:37.917Z,27.32
2023-08-17T08:57:41.269Z,27.44
2023-08-17T09:00:44.044Z,27.77
2023-08-17T09:03:48.716Z,28.29
2023-08-17T09:06:52.252Z,28.40
2023-08-17T09:09:54.458Z,28.69
2023-08-17T09:12:56.617Z,28.98
2023-08-17T09:16:07.528Z,29.30
2023-08-17T09:19:10.706Z,29.75
2023-08-17T09:22:12.957Z,30.16
2023-08-17T09:25:23.975Z,30.48
2023-08-17T09:28:26.070Z,30.57
2023-08-17T09:31:32.207Z,30.68
2023-08-17T09:34:34.657Z,30.62
2023-08-17T09:37:36.772Z,30.61
2023-08-17T09:40:39.236Z,30.59
2023-08-17T09:43:42.309Z,30.52
2023-08-17T09:46:45.586Z,30.46
2023-08-17T09:49:53.376Z,30.41
2023-08-17T09:52:55.826Z,30.33
2023-08-17T09:56:00.272Z,30.30
2023-08-17T09:59:02.398Z,30.26
2023-08-17T10:02:05.125Z,30.20
2023-08-17T10:05:15.181Z,30.17
2023-08-17T10:08:21.820Z,30.16
2023-08-17T10:11:24.963Z,30.16
2023-08-17T10:14:35.553Z,30.12
2023-08-17T10:17:59.932Z,30.04
2023-08-17T10:21:04.086Z,30.00
2023-08-17T10:24:08.960Z,29.93
2023-08-17T10:27:12.102Z,29.96
2023-08-17T10:30:14.361Z,29.92
2023-08-17T10:33:17.305Z,29.86
2023-08-17T10:36:20.776Z,29.83
2023-08-17T10:39:29.403Z,29.87
2023-08-17T10:42:36.941Z,29.85
2023-08-17T10:45:46.262Z,29.74
2023-08-17T10:48:48.565Z,29.75
2023-08-17T10:52:08.404Z,29.63
2023-08-17T10:55:11.301Z,29.63
2023-08-17T10:58:16.218Z,29.73
2023-08-17T11:01:41.832Z,29.96
2023-08-17T11:04:52.417Z,30.11
2023-08-17T11:07:54.563Z,30.17
2023-08-17T11:11:13.672Z,30.21
2023-08-17T11:14:16.936Z,30.30
2023-08-17T11:17:22.359Z,30.30
2023-08-17T11:20:25.402Z,30.26
2023-08-17T11:23:31.346Z,30.32
2023-08-17T11:26:36.215Z,30.23
2023-08-17T11:32:47.964Z,30.12
2023-08-17T11:35:51.390Z,30.14
2023-08-17T11:38:55.092Z,30.13
2023-08-17T11:41:57.764Z,30.14
2023-08-17T11:45:01.645Z,30.11
2023-08-17T11:48:05.095Z,30.11
2023-08-17T11:51:07.905Z,30.03
2023-08-17T11:54:10.687Z,30.03
2023-08-17T11:57:13.749Z,30.08
2023-08-17T12:00:22.204Z,30.02
2023-08-17T12:03:26.292Z,29.94
2023-08-17T12:06:28.690Z,29.98
2023-08-17T12:09:33.515Z,29.98
2023-08-17T12:12:39.658Z,29.97
2023-08-17T12:15:41.959Z,29.92
2023-08-17T12:18:54.426Z,29.83
2023-08-17T12:22:00.066Z,29.77
2023-08-17T12:25:02.249Z,29.66
2023-08-17T12:28:05.194Z,29.69
2023-08-17T12:31:07.367Z,29.67
2023-08-17T12:34:12.431Z,29.66
2023-08-17T12:37:22.106Z,29.70
2023-08-17T12:40:24.745Z,29.74
2023-08-17T12:43:26.943Z,29.60
2023-08-17T12:46:32.565Z,29.43
2023-08-17T12:49:39.576Z,29.40
2023-08-17T12:52:47.143Z,29.51
2023-08-17T12:55:56.085Z,29.60
2023-08-17T12:59:03.177Z,29.55
2023-08-17T13:02:05.547Z,29.57
2023-08-17T13:05:08.320Z,29.52
2023-08-17T13:08:12.594Z,29.61
2023-08-17T13:11:14.732Z,29.71
2023-08-17T13:14:17.435Z,29.64
2023-08-17T13:17:20.786Z,29.61
2023-08-17T13:20:23.823Z,29.45
2023-08-17T13:23:25.838Z,29.37
2023-08-17T13:26:28.261Z,29.43
2023-08-17T13:29:30.430Z,29.45
2023-08-17T13:32:32.701Z,29.44
2023-08-17T13:35:35.752Z,29.44
2023-08-17T13:38:40.045Z,29.42
2023-08-17T13:41:42.719Z,29.35
2023-08-17T13:44:44.880Z,29.30
2023-08-17T13:47:47.106Z,29.37
2023-08-17T13:50:49.385Z,29.42
2023-08-17T13:53:51.469Z,29.48
2023-08-17T13:56:53.808Z,29.53
2023-08-17T13:59:56.331Z,29.48
2023-08-17T14:02:58.598Z,29.44
2023-08-17T14:06:01.739Z,29.52
2023-08-17T14:09:04.391Z,29.45
2023-08-17T14:12:06.908Z,29.51
2023-08-17T14:15:09.982Z,29.50
2023-08-17T14:18:12.119Z,29.46
2023-08-17T14:21:14.245Z,29.44
2023-08-17T14:24:16.401Z,29.44
2023-08-17T14:27:18.372Z,29.40
2023-08-17T14:30:20.749Z,29.41
2023-08-17T14:33:23.031Z,29.36
2023-08-17T14:36:25.222Z,29.33
2023-08-17T14:39:27.395Z,29.27
2023-08-17T14:42:31.002Z,29.23
2023-08-17T14:45:33.167Z,29.24
2023-08-17T14:48:38.089Z,29.29
2023-08-17T14:51:42.676Z,29.43
2023-08-17T14:54:44.965Z,29.43
2023-08-17T14:57:49.033Z,29.41
2023-08-17T15:00:51.146Z,29.40
2023-08-17T15:03:53.237Z,29.44
2023-08-17T15:06:55.371Z,29.39
2023-08-17T15:09:57.528Z,29.37
2023-08-17T15:12:59.628Z,29.34
2023-08-17T15:16:01.918Z,29.29
2023-08-17T15:19:04.680Z,29.26
2023-08-17T15:22:06.864Z,29.26
2023-08-17T15:25:09.178Z,29.15
2023-08-17T15:28:11.236Z,29.21
2023-08-17T15:31:15.101Z,29.42
2023-08-17T15:34:17.175Z,29.65
2023-08-17T15:37:19.288Z,29.72
2023-08-17T15:40:21.467Z,29.46
2023-08-17T15:43:23.493Z,29.79
2023-08-17T15:46:25.870Z,29.66
2023-08-17T15:49:28.031Z,29.11
2023-08-17T15:52:30.054Z,29.01
2023-08-17T15:55:32.623Z,29.05
2023-08-17T15:58:34.724Z,29.02
2023-08-17T16:01:39.678Z,29.03
2023-08-17T16:04:42.019Z,29.10
2023-08-17T16:07:44.193Z,29.08
2023-08-17T16:10:46.400Z,29.20
2023-08-17T16:13:48.419Z,29.19
2023-08-17T16:16:56.709Z,29.12
2023-08-17T16:19:59.963Z,29.12
2023-08-17T16:23:03.085Z,29.18
2023-08-17T16:26:05.915Z,29.14
2023-08-17T16:29:08.088Z,29.07
2023-08-17T16:32:10.782Z,29.03
2023-08-17T16:35:12.974Z,28.91
2023-08-17T16:38:15.226Z,28.84
2023-08-17T16:41:18.423Z,28.79
2023-08-17T16:44:25.440Z,28.83
2023-08-17T16:47:30.660Z,28.89
2023-08-17T16:50:34.665Z,28.87
2023-08-17T16:53:36.978Z,28.76
2023-08-17T16:56:47.224Z,28.70
2023-08-17T16:59:49.729Z,28.70
2023-08-17T17:02:52.267Z,28.70
2023-08-17T17:06:00.026Z,28.59
2023-08-17T17:09:04.634Z,28.59
2023-08-17T17:15:25.315Z,28.44
2023-08-17T17:18:27.868Z,28.47
2023-08-17T17:21:29.941Z,28.53
2023-08-17T17:24:32.951Z,28.45
2023-08-17T17:27:35.741Z,28.33
2023-08-17T17:30:39.325Z,28.33
2023-08-17T17:33:41.756Z,28.29
2023-08-17T17:36:44.098Z,28.23
2023-08-17T17:39:49.551Z,28.17
2023-08-17T17:42:51.854Z,28.17
2023-08-17T17:45:54.331Z,28.11
2023-08-17T17:49:06.877Z,28.02
2023-08-17T17:52:13.664Z,27.87
2023-08-17T17:55:15.794Z,27.87
2023-08-17T17:58:17.848Z,27.81
2023-08-17T18:01:20.134Z,27.72
2023-08-17T18:04:22.343Z,27.65
2023-08-17T18:07:24.499Z,27.62
2023-08-17T18:10:26.582Z,27.59
2023-08-17T18:13:29.122Z,27.52
2023-08-17T18:16:32.388Z,27.54
2023-08-17T18:19:36.260Z,27.50
2023-08-17T18:22:38.772Z,27.44
2023-08-17T18:25:41.253Z,27.36
2023-08-17T18:28:44.595Z,27.32
2023-08-17T18:32:06.450Z,27.31
2023-08-17T18:35:09.805Z,27.28
2023-08-17T18:38:48.913Z,27.30
2023-08-17T18:42:13.172Z,27.25
2023-08-17T18:45:16.039Z,27.26
2023-08-17T18:48:19.718Z,27.19
2023-08-17T18:51:21.795Z,27.18
2023-08-17T18:54:28.721Z,27.14
2023-08-17T18:57:37.039Z,27.13
2023-08-17T19:00:42.702Z,27.08
2023-08-17T19:03:45.642Z,27.07
2023-08-17T19:06:51.057Z,27.06
2023-08-17T19:09:55.138Z,27.07
2023-08-17T19:13:00.553Z,27.06
2023-08-17T19:16:04.110Z,27.06
2023-08-17T19:19:06.372Z,27.03
2023-08-17T19:22:08.527Z,27.02
2023-08-17T19:25:13.926Z,26.99
2023-08-17T19:28:18.107Z,26.94
2023-08-17T19:31:20.381Z,26.93
2023-08-17T19:34:22.590Z,26.97
2023-08-17T19:37:27.798Z,26.96
2023-08-17T19:40:31.440Z,26.96
2023-08-17T19:43:35.508Z,26.92
2023-08-17T19:46:37.857Z,26.92
2023-08-17T19:49:40.018Z,26.89
2023-08-17T19:52:45.923Z,26.90
2023-08-17T19:55:48.236Z,26.85
2023-08-17T19:58:52.517Z,26.83
2023-08-17T20:01:55.098Z,26.79
2023-08-17T20:05:12.964Z,26.70
2023-08-17T20:08:16.698Z,26.70
2023-08-17T20:11:21.323Z,26.67
2023-08-17T20:14:23.774Z,26.59
2023-08-17T20:17:26.334Z,26.60
2023-08-17T20:20:28.971Z,26.59
2023-08-17T20:23:32.719Z,26.60
2023-08-17T20:26:34.836Z,26.60
2023-08-17T20:29:37.041Z,26.53
2023-08-17T20:32:45.415Z,26.56
2023-08-17T20:35:51.434Z,26.58
2023-08-17T20:38:54.464Z,26.58
2023-08-17T20:41:56.663Z,26.56
2023-08-17T20:44:59.712Z,26.54
2023-08-17T20:48:01.821Z,26.52
2023-08-17T20:51:04.350Z,26.51
2023-08-17T20:54:06.815Z,26.47
2023-08-17T20:57:08.849Z,26.45
2023-08-17T21:00:11.433Z,26.45
2023-08-17T21:03:13.673Z,26.37
2023-08-17T21:06:15.714Z,26.38
2023-08-17T21:09:17.983Z,26.33
2023-08-17T21:12:20.208Z,26.34
2023-08-17T21:15:22.259Z,26.33
2023-08-17T21:18:24.336Z,26.30
2023-08-17T21:21:28.257Z,26.23
2023-08-17T21:24:30.280Z,26.18
2023-08-17T21:27:32.313Z,26.13
2023-08-17T21:30:34.636Z,26.11
2023-08-17T21:33:37.926Z,26.08
2023-08-17T21:36:40.012Z,26.05
2023-08-17T21:39:42.888Z,26.01
2023-08-17T21:42:45.275Z,26.02
2023-08-17T21:45:47.349Z,26.01
2023-08-17T21:48:49.482Z,26.06
2023-08-17T21:51:52.276Z,26.05
2023-08-17T21:54:54.569Z,25.99
2023-08-17T21:57:56.855Z,26.03
2023-08-17T22:00:58.930Z,26.02
2023-08-17T22:04:02.090Z,26.06
2023-08-17T22:07:04.425Z,26.03
2023-08-17T22:10:07.319Z,26.02
2023-08-17T22:13:09.429Z,25.98
2023-08-17T22:16:11.649Z,25.92
2023-08-17T22:19:13.857Z,25.88
2023-08-17T22:22:16.026Z,25.81
2023-08-17T22:25:18.247Z,25.86
2023-08-17T22:28:20.479Z,25.86
2023-08-17T22:31:22.705Z,25.78
2023-08-17T22:34:24.874Z,25.81
2023-08-17T22:37:28.045Z,25.83
2023-08-17T22:40:30.743Z,25.86
2023-08-17T22:43:34.000Z,25.88
2023-08-17T22:46:36.027Z,25.90
2023-08-17T22:49:39.265Z,25.87
2023-08-17T22:52:41.352Z,25.87
2023-08-17T22:55:43.478Z,25.89
2023-08-17T22:58:45.496Z,25.88
2023-08-17T23:01:47.640Z,25.87
2023-08-17T23:04:49.693Z,25.85
2023-08-17T23:07:52.453Z,25.84
2023-08-17T23:11:03.970Z,25.81
2023-08-17T23:14:06.060Z,25.70
2023-08-17T23:17:09.979Z,25.68
2023-08-17T23:20:13.239Z,25.63
2023-08-17T23:23:15.493Z,25.63
2023-08-17T23:26:17.612Z,25.64
2023-08-17T23:29:19.715Z,25.61
2023-08-17T23:32:27.958Z,25.62
2023-08-17T23:35:30.797Z,25.65
2023-08-17T23:38:32.953Z,25.70
2023-08-17T23:41:35.083Z,25.68
2023-08-17T23:44:37.849Z,25.69
2023-08-17T23:47:39.821Z,25.82
2023-08-17T23:50:42.079Z,26.00
2023-08-17T23:53:44.216Z,26.17
2023-08-17T23:56:46.318Z,26.21
2023-08-17T23:59:48.497Z,26.28
